sensor_id;sensor_type;location;lat;lon;timestamp;temperature;humidity
4376;DHT22;2202;50.866;12.750;2022-07-29T00:02:00;16.00;47.90
4376;DHT22;2202;50.866;12.750;2022-07-29T00:04:27;16.10;48.40
4376;DHT22;2202;50.866;12.750;2022-07-29T00:06:53;16.10;48.40
4376;DHT22;2202;50.866;12.750;2022-07-29T00:09:22;16.20;47.70
4376;DHT22;2202;50.866;12.750;2022-07-29T00:11:49;16.20;48.00
4376;DHT22;2202;50.866;12.750;2022-07-29T00:14:15;16.30;48.80
4376;DHT22;2202;50.866;12.750;2022-07-29T00:16:42;16.30;48.20
4376;DHT22;2202;50.866;12.750;2022-07-29T00:19:09;16.30;48.20
4376;DHT22;2202;50.866;12.750;2022-07-29T00:21:36;16.40;48.20
4376;DHT22;2202;50.866;12.750;2022-07-29T00:24:03;16.40;48.40
4376;DHT22;2202;50.866;12.750;2022-07-29T00:26:31;16.40;48.60
4376;DHT22;2202;50.866;12.750;2022-07-29T00:28:59;16.40;49.30
4376;DHT22;2202;50.866;12.750;2022-07-29T00:31:26;16.40;48.60
4376;DHT22;2202;50.866;12.750;2022-07-29T00:33:53;16.50;48.80
4376;DHT22;2202;50.866;12.750;2022-07-29T00:36:20;16.50;48.80
4376;DHT22;2202;50.866;12.750;2022-07-29T00:38:46;16.50;48.90
4376;DHT22;2202;50.866;12.750;2022-07-29T00:41:13;16.50;49.10
4376;DHT22;2202;50.866;12.750;2022-07-29T00:43:41;16.50;50.50
4376;DHT22;2202;50.866;12.750;2022-07-29T00:46:08;16.50;50.20
4376;DHT22;2202;50.866;12.750;2022-07-29T00:48:35;16.50;50.20
4376;DHT22;2202;50.866;12.750;2022-07-29T00:51:03;16.50;50.30
4376;DHT22;2202;50.866;12.750;2022-07-29T00:53:31;16.60;50.90
4376;DHT22;2202;50.866;12.750;2022-07-29T00:55:58;16.60;50.90
4376;DHT22;2202;50.866;12.750;2022-07-29T00:58:26;16.60;51.40
4376;DHT22;2202;50.866;12.750;2022-07-29T01:00:54;16.60;51.40
4376;DHT22;2202;50.866;12.750;2022-07-29T01:03:22;16.70;51.60
4376;DHT22;2202;50.866;12.750;2022-07-29T01:05:48;16.70;51.20
4376;DHT22;2202;50.866;12.750;2022-07-29T01:08:16;16.70;51.40
4376;DHT22;2202;50.866;12.750;2022-07-29T01:10:43;16.70;51.60
4376;DHT22;2202;50.866;12.750;2022-07-29T01:13:11;16.70;52.10
4376;DHT22;2202;50.866;12.750;2022-07-29T01:15:43;16.70;51.90
4376;DHT22;2202;50.866;12.750;2022-07-29T01:18:16;16.70;52.10
4376;DHT22;2202;50.866;12.750;2022-07-29T01:20:56;16.70;51.90
4376;DHT22;2202;50.866;12.750;2022-07-29T01:23:44;16.70;53.00
4376;DHT22;2202;50.866;12.750;2022-07-29T01:26:33;16.70;52.50
4376;DHT22;2202;50.866;12.750;2022-07-29T01:29:12;16.60;53.20
4376;DHT22;2202;50.866;12.750;2022-07-29T01:31:46;16.60;51.90
4376;DHT22;2202;50.866;12.750;2022-07-29T01:34:19;16.70;52.30
4376;DHT22;2202;50.866;12.750;2022-07-29T01:36:50;16.70;51.40
4376;DHT22;2202;50.866;12.750;2022-07-29T01:39:19;16.80;51.90
4376;DHT22;2202;50.866;12.750;2022-07-29T01:41:53;16.80;51.60
4376;DHT22;2202;50.866;12.750;2022-07-29T01:44:29;16.90;51.60
4376;DHT22;2202;50.866;12.750;2022-07-29T01:47:00;16.90;51.10
4376;DHT22;2202;50.866;12.750;2022-07-29T01:49:31;16.90;52.10
4376;DHT22;2202;50.866;12.750;2022-07-29T01:52:02;17.00;51.20
4376;DHT22;2202;50.866;12.750;2022-07-29T01:54:34;17.00;51.80
4376;DHT22;2202;50.866;12.750;2022-07-29T01:57:03;17.00;52.80
4376;DHT22;2202;50.866;12.750;2022-07-29T01:59:33;17.00;51.60
4376;DHT22;2202;50.866;12.750;2022-07-29T02:02:01;17.00;52.10
4376;DHT22;2202;50.866;12.750;2022-07-29T02:04:29;17.00;52.30
4376;DHT22;2202;50.866;12.750;2022-07-29T02:07:01;17.10;53.50
4376;DHT22;2202;50.866;12.750;2022-07-29T02:09:30;17.00;53.70
4376;DHT22;2202;50.866;12.750;2022-07-29T02:11:59;17.00;54.40
4376;DHT22;2202;50.866;12.750;2022-07-29T02:14:30;17.00;54.30
4376;DHT22;2202;50.866;12.750;2022-07-29T02:17:00;16.90;55.00
4376;DHT22;2202;50.866;12.750;2022-07-29T02:19:29;16.90;55.50
4376;DHT22;2202;50.866;12.750;2022-07-29T02:21:59;16.90;55.90
4376;DHT22;2202;50.866;12.750;2022-07-29T02:24:26;16.80;56.40
4376;DHT22;2202;50.866;12.750;2022-07-29T02:26:56;16.80;56.90
4376;DHT22;2202;50.866;12.750;2022-07-29T02:29:26;16.80;56.60
4376;DHT22;2202;50.866;12.750;2022-07-29T02:31:55;16.70;57.10
4376;DHT22;2202;50.866;12.750;2022-07-29T02:34:25;16.70;57.80
4376;DHT22;2202;50.866;12.750;2022-07-29T02:36:54;16.70;58.50
4376;DHT22;2202;50.866;12.750;2022-07-29T02:39:22;16.60;57.60
4376;DHT22;2202;50.866;12.750;2022-07-29T02:41:53;16.50;58.20
4376;DHT22;2202;50.866;12.750;2022-07-29T02:44:24;16.50;58.50
4376;DHT22;2202;50.866;12.750;2022-07-29T02:46:55;16.50;59.20
4376;DHT22;2202;50.866;12.750;2022-07-29T02:49:32;16.40;59.40
4376;DHT22;2202;50.866;12.750;2022-07-29T02:52:03;16.40;59.80
4376;DHT22;2202;50.866;12.750;2022-07-29T02:54:33;16.40;59.60
4376;DHT22;2202;50.866;12.750;2022-07-29T02:57:09;16.40;60.20
4376;DHT22;2202;50.866;12.750;2022-07-29T02:59:40;16.40;60.60
4376;DHT22;2202;50.866;12.750;2022-07-29T03:02:09;16.40;58.90
4376;DHT22;2202;50.866;12.750;2022-07-29T03:04:40;16.40;58.50
4376;DHT22;2202;50.866;12.750;2022-07-29T03:07:09;16.40;58.50
4376;DHT22;2202;50.866;12.750;2022-07-29T03:09:37;16.40;59.20
4376;DHT22;2202;50.866;12.750;2022-07-29T03:12:05;16.40;59.80
4376;DHT22;2202;50.866;12.750;2022-07-29T03:14:33;16.40;59.90
4376;DHT22;2202;50.866;12.750;2022-07-29T03:17:00;16.40;60.20
4376;DHT22;2202;50.866;12.750;2022-07-29T03:19:27;16.40;59.00
4376;DHT22;2202;50.866;12.750;2022-07-29T03:21:57;16.40;60.10
4376;DHT22;2202;50.866;12.750;2022-07-29T03:24:26;16.40;60.60
4376;DHT22;2202;50.866;12.750;2022-07-29T03:26:54;16.40;60.60
4376;DHT22;2202;50.866;12.750;2022-07-29T03:29:22;16.40;61.40
4376;DHT22;2202;50.866;12.750;2022-07-29T03:31:48;16.40;62.00
4376;DHT22;2202;50.866;12.750;2022-07-29T03:34:15;16.40;62.00
4376;DHT22;2202;50.866;12.750;2022-07-29T03:36:42;16.40;61.80
4376;DHT22;2202;50.866;12.750;2022-07-29T03:39:12;16.40;62.40
4376;DHT22;2202;50.866;12.750;2022-07-29T03:41:42;16.40;61.80
4376;DHT22;2202;50.866;12.750;2022-07-29T03:44:11;16.40;61.60
4376;DHT22;2202;50.866;12.750;2022-07-29T03:46:39;16.40;62.20
4376;DHT22;2202;50.866;12.750;2022-07-29T03:49:08;16.40;60.80
4376;DHT22;2202;50.866;12.750;2022-07-29T03:51:36;16.50;60.60
4376;DHT22;2202;50.866;12.750;2022-07-29T03:54:03;16.50;61.40
4376;DHT22;2202;50.866;12.750;2022-07-29T03:56:35;16.60;61.60
4376;DHT22;2202;50.866;12.750;2022-07-29T03:59:04;16.60;62.00
4376;DHT22;2202;50.866;12.750;2022-07-29T04:01:33;16.60;61.00
4376;DHT22;2202;50.866;12.750;2022-07-29T04:04:02;16.70;61.00
4376;DHT22;2202;50.866;12.750;2022-07-29T04:06:38;16.70;60.60
4376;DHT22;2202;50.866;12.750;2022-07-29T04:09:05;16.70;61.60
4376;DHT22;2202;50.866;12.750;2022-07-29T04:11:33;16.70;60.60
4376;DHT22;2202;50.866;12.750;2022-07-29T04:14:01;16.70;59.90
4376;DHT22;2202;50.866;12.750;2022-07-29T04:16:27;16.80;60.20
4376;DHT22;2202;50.866;12.750;2022-07-29T04:18:54;16.90;60.10
4376;DHT22;2202;50.866;12.750;2022-07-29T04:21:21;16.90;59.80
4376;DHT22;2202;50.866;12.750;2022-07-29T04:23:48;17.00;59.60
4376;DHT22;2202;50.866;12.750;2022-07-29T04:26:16;17.00;59.60
4376;DHT22;2202;50.866;12.750;2022-07-29T04:28:44;17.10;60.10
4376;DHT22;2202;50.866;12.750;2022-07-29T04:31:12;17.10;59.60
4376;DHT22;2202;50.866;12.750;2022-07-29T04:33:39;17.20;59.00
4376;DHT22;2202;50.866;12.750;2022-07-29T04:36:06;17.30;58.90
4376;DHT22;2202;50.866;12.750;2022-07-29T04:38:33;17.30;59.00
4376;DHT22;2202;50.866;12.750;2022-07-29T04:41:00;17.40;60.20
4376;DHT22;2202;50.866;12.750;2022-07-29T04:43:27;17.40;60.10
4376;DHT22;2202;50.866;12.750;2022-07-29T04:45:55;17.40;60.40
4376;DHT22;2202;50.866;12.750;2022-07-29T04:48:22;17.50;61.40
4376;DHT22;2202;50.866;12.750;2022-07-29T04:50:49;17.50;63.60
4376;DHT22;2202;50.866;12.750;2022-07-29T04:53:16;17.50;64.40
4376;DHT22;2202;50.866;12.750;2022-07-29T04:55:43;17.50;62.60
4376;DHT22;2202;50.866;12.750;2022-07-29T04:58:10;17.60;61.60
4376;DHT22;2202;50.866;12.750;2022-07-29T05:00:37;17.70;64.00
4376;DHT22;2202;50.866;12.750;2022-07-29T05:03:06;17.70;61.80
4376;DHT22;2202;50.866;12.750;2022-07-29T05:05:33;17.80;64.20
4376;DHT22;2202;50.866;12.750;2022-07-29T05:08:00;17.90;63.80
4376;DHT22;2202;50.866;12.750;2022-07-29T05:10:27;18.10;65.80
4376;DHT22;2202;50.866;12.750;2022-07-29T05:12:54;18.20;70.20
4376;DHT22;2202;50.866;12.750;2022-07-29T05:15:21;18.30;70.20
4376;DHT22;2202;50.866;12.750;2022-07-29T05:17:48;18.50;67.80
4376;DHT22;2202;50.866;12.750;2022-07-29T05:20:16;18.50;68.60
4376;DHT22;2202;50.866;12.750;2022-07-29T05:22:43;18.60;64.80
4376;DHT22;2202;50.866;12.750;2022-07-29T05:25:10;18.70;67.20
4376;DHT22;2202;50.866;12.750;2022-07-29T05:27:37;18.70;67.40
4376;DHT22;2202;50.866;12.750;2022-07-29T05:30:05;18.80;63.20
4376;DHT22;2202;50.866;12.750;2022-07-29T05:32:32;18.90;57.60
4376;DHT22;2202;50.866;12.750;2022-07-29T05:34:59;19.00;57.10
4376;DHT22;2202;50.866;12.750;2022-07-29T05:37:27;19.10;55.50
4376;DHT22;2202;50.866;12.750;2022-07-29T05:39:54;19.20;56.60
4376;DHT22;2202;50.866;12.750;2022-07-29T05:42:21;19.30;59.40
4376;DHT22;2202;50.866;12.750;2022-07-29T05:44:48;19.50;60.10
4376;DHT22;2202;50.866;12.750;2022-07-29T05:47:15;19.70;59.80
4376;DHT22;2202;50.866;12.750;2022-07-29T05:49:42;19.80;56.00
4376;DHT22;2202;50.866;12.750;2022-07-29T05:52:09;19.90;58.70
4376;DHT22;2202;50.866;12.750;2022-07-29T05:54:37;20.10;60.60
4376;DHT22;2202;50.866;12.750;2022-07-29T05:57:04;20.30;61.40
4376;DHT22;2202;50.866;12.750;2022-07-29T05:59:31;20.50;59.40
4376;DHT22;2202;50.866;12.750;2022-07-29T06:02:01;20.70;62.00
4376;DHT22;2202;50.866;12.750;2022-07-29T06:04:30;20.70;59.00
4376;DHT22;2202;50.866;12.750;2022-07-29T06:06:57;20.70;54.60
4376;DHT22;2202;50.866;12.750;2022-07-29T06:09:24;20.70;55.50
4376;DHT22;2202;50.866;12.750;2022-07-29T06:11:52;20.80;53.90
4376;DHT22;2202;50.866;12.750;2022-07-29T06:14:19;20.90;55.50
4376;DHT22;2202;50.866;12.750;2022-07-29T06:16:46;20.90;56.60
4376;DHT22;2202;50.866;12.750;2022-07-29T06:19:13;21.00;58.70
4376;DHT22;2202;50.866;12.750;2022-07-29T06:21:41;21.10;59.00
4376;DHT22;2202;50.866;12.750;2022-07-29T06:24:09;21.20;58.90
4376;DHT22;2202;50.866;12.750;2022-07-29T06:26:37;21.20;57.40
4376;DHT22;2202;50.866;12.750;2022-07-29T06:29:06;21.20;57.60
4376;DHT22;2202;50.866;12.750;2022-07-29T06:31:33;21.40;52.30
4376;DHT22;2202;50.866;12.750;2022-07-29T06:34:00;21.40;56.60
4376;DHT22;2202;50.866;12.750;2022-07-29T06:36:27;21.40;50.70
4376;DHT22;2202;50.866;12.750;2022-07-29T06:38:54;21.50;50.50
4376;DHT22;2202;50.866;12.750;2022-07-29T06:41:21;21.60;49.10
4376;DHT22;2202;50.866;12.750;2022-07-29T06:43:49;21.60;49.60
4376;DHT22;2202;50.866;12.750;2022-07-29T06:46:18;21.80;50.20
4376;DHT22;2202;50.866;12.750;2022-07-29T06:48:46;21.90;48.20
4376;DHT22;2202;50.866;12.750;2022-07-29T06:51:14;22.00;50.90
4376;DHT22;2202;50.866;12.750;2022-07-29T06:53:41;22.10;48.90
4376;DHT22;2202;50.866;12.750;2022-07-29T06:56:09;22.20;49.60
4376;DHT22;2202;50.866;12.750;2022-07-29T06:58:38;22.30;48.80
4376;DHT22;2202;50.866;12.750;2022-07-29T07:01:06;22.40;50.00
4376;DHT22;2202;50.866;12.750;2022-07-29T07:03:34;22.50;47.30
4376;DHT22;2202;50.866;12.750;2022-07-29T07:06:01;22.50;45.70
4376;DHT22;2202;50.866;12.750;2022-07-29T07:08:28;22.40;46.60
4376;DHT22;2202;50.866;12.750;2022-07-29T07:10:55;22.20;46.60
4376;DHT22;2202;50.866;12.750;2022-07-29T07:13:22;22.10;46.60
4376;DHT22;2202;50.866;12.750;2022-07-29T07:15:49;22.00;46.80
4376;DHT22;2202;50.866;12.750;2022-07-29T07:18:18;21.90;47.50
4376;DHT22;2202;50.866;12.750;2022-07-29T07:20:46;21.90;48.20
4376;DHT22;2202;50.866;12.750;2022-07-29T07:23:13;21.90;47.30
4376;DHT22;2202;50.866;12.750;2022-07-29T07:25:40;22.00;48.20
4376;DHT22;2202;50.866;12.750;2022-07-29T07:28:07;22.10;47.20
4376;DHT22;2202;50.866;12.750;2022-07-29T07:30:34;22.20;46.60
4376;DHT22;2202;50.866;12.750;2022-07-29T07:33:01;22.40;46.60
4376;DHT22;2202;50.866;12.750;2022-07-29T07:35:28;22.40;46.30
4376;DHT22;2202;50.866;12.750;2022-07-29T07:37:57;22.50;48.00
4376;DHT22;2202;50.866;12.750;2022-07-29T07:40:24;22.60;46.80
4376;DHT22;2202;50.866;12.750;2022-07-29T07:42:51;22.70;45.40
4376;DHT22;2202;50.866;12.750;2022-07-29T07:45:18;22.80;44.70
4376;DHT22;2202;50.866;12.750;2022-07-29T07:47:44;22.80;44.30
4376;DHT22;2202;50.866;12.750;2022-07-29T07:50:12;22.80;45.90
4376;DHT22;2202;50.866;12.750;2022-07-29T07:52:49;22.90;45.90
4376;DHT22;2202;50.866;12.750;2022-07-29T07:55:19;22.90;45.00
4376;DHT22;2202;50.866;12.750;2022-07-29T07:57:46;22.90;46.10
4376;DHT22;2202;50.866;12.750;2022-07-29T08:00:15;23.00;47.50
4376;DHT22;2202;50.866;12.750;2022-07-29T08:02:42;23.10;45.20
4376;DHT22;2202;50.866;12.750;2022-07-29T08:05:11;23.40;45.00
4376;DHT22;2202;50.866;12.750;2022-07-29T08:07:42;23.60;44.80
4376;DHT22;2202;50.866;12.750;2022-07-29T08:10:09;23.60;44.00
4376;DHT22;2202;50.866;12.750;2022-07-29T08:12:37;23.60;44.00
4376;DHT22;2202;50.866;12.750;2022-07-29T08:15:05;23.80;42.40
4376;DHT22;2202;50.866;12.750;2022-07-29T08:17:33;24.00;43.10
4376;DHT22;2202;50.866;12.750;2022-07-29T08:20:00;24.20;41.70
4376;DHT22;2202;50.866;12.750;2022-07-29T08:22:27;24.40;42.50
4376;DHT22;2202;50.866;12.750;2022-07-29T08:24:54;24.80;40.40
4376;DHT22;2202;50.866;12.750;2022-07-29T08:27:21;25.10;41.10
4376;DHT22;2202;50.866;12.750;2022-07-29T08:29:50;25.40;37.90
4376;DHT22;2202;50.866;12.750;2022-07-29T08:32:16;25.70;37.00
4376;DHT22;2202;50.866;12.750;2022-07-29T08:34:43;26.00;36.50
4376;DHT22;2202;50.866;12.750;2022-07-29T08:37:12;26.10;36.90
4376;DHT22;2202;50.866;12.750;2022-07-29T08:39:38;26.00;35.10
4376;DHT22;2202;50.866;12.750;2022-07-29T08:42:06;26.00;36.70
4376;DHT22;2202;50.866;12.750;2022-07-29T08:44:33;26.10;36.90
4376;DHT22;2202;50.866;12.750;2022-07-29T08:47:02;26.40;36.90
4376;DHT22;2202;50.866;12.750;2022-07-29T08:49:30;26.70;36.30
4376;DHT22;2202;50.866;12.750;2022-07-29T08:51:57;27.10;34.20
4376;DHT22;2202;50.866;12.750;2022-07-29T08:54:25;27.20;35.30
4376;DHT22;2202;50.866;12.750;2022-07-29T08:56:52;27.40;32.40
4376;DHT22;2202;50.866;12.750;2022-07-29T08:59:20;27.60;32.10
4376;DHT22;2202;50.866;12.750;2022-07-29T09:01:51;27.70;32.80
4376;DHT22;2202;50.866;12.750;2022-07-29T09:04:20;27.80;31.90
4376;DHT22;2202;50.866;12.750;2022-07-29T09:06:50;27.90;32.20
4376;DHT22;2202;50.866;12.750;2022-07-29T09:09:18;28.10;31.50
4376;DHT22;2202;50.866;12.750;2022-07-29T09:11:47;28.40;31.50
4376;DHT22;2202;50.866;12.750;2022-07-29T09:14:14;28.70;31.70
4376;DHT22;2202;50.866;12.750;2022-07-29T09:16:45;29.00;29.80
4376;DHT22;2202;50.866;12.750;2022-07-29T09:19:25;29.00;31.20
4376;DHT22;2202;50.866;12.750;2022-07-29T09:21:53;29.10;29.60
4376;DHT22;2202;50.866;12.750;2022-07-29T09:24:40;29.30;28.80
4376;DHT22;2202;50.866;12.750;2022-07-29T09:27:18;29.10;29.80
4376;DHT22;2202;50.866;12.750;2022-07-29T09:29:46;29.40;28.70
4376;DHT22;2202;50.866;12.750;2022-07-29T09:32:13;29.70;29.00
4376;DHT22;2202;50.866;12.750;2022-07-29T09:34:41;29.70;28.50
4376;DHT22;2202;50.866;12.750;2022-07-29T09:37:08;29.60;29.00
4376;DHT22;2202;50.866;12.750;2022-07-29T09:39:38;29.80;29.10
4376;DHT22;2202;50.866;12.750;2022-07-29T09:42:11;29.60;28.40
4376;DHT22;2202;50.866;12.750;2022-07-29T09:44:43;29.60;28.70
4376;DHT22;2202;50.866;12.750;2022-07-29T09:47:10;29.40;27.90
4376;DHT22;2202;50.866;12.750;2022-07-29T09:49:53;29.50;29.20
4376;DHT22;2202;50.866;12.750;2022-07-29T09:52:20;29.80;28.40
4376;DHT22;2202;50.866;12.750;2022-07-29T09:54:47;29.90;28.50
4376;DHT22;2202;50.866;12.750;2022-07-29T09:57:24;30.10;28.70
4376;DHT22;2202;50.866;12.750;2022-07-29T09:59:59;30.40;28.80
4376;DHT22;2202;50.866;12.750;2022-07-29T10:02:30;30.50;27.20
4376;DHT22;2202;50.866;12.750;2022-07-29T10:04:59;30.30;27.70
4376;DHT22;2202;50.866;12.750;2022-07-29T10:07:28;30.50;26.70
4376;DHT22;2202;50.866;12.750;2022-07-29T10:10:09;30.50;27.30
4376;DHT22;2202;50.866;12.750;2022-07-29T10:12:48;30.50;27.50
4376;DHT22;2202;50.866;12.750;2022-07-29T10:15:16;30.60;27.40
4376;DHT22;2202;50.866;12.750;2022-07-29T10:17:44;30.70;26.90
4376;DHT22;2202;50.866;12.750;2022-07-29T10:20:12;30.80;27.50
4376;DHT22;2202;50.866;12.750;2022-07-29T10:22:40;31.00;27.40
4376;DHT22;2202;50.866;12.750;2022-07-29T10:25:08;31.00;26.60
4376;DHT22;2202;50.866;12.750;2022-07-29T10:27:35;30.90;27.20
4376;DHT22;2202;50.866;12.750;2022-07-29T10:30:03;31.10;28.60
4376;DHT22;2202;50.866;12.750;2022-07-29T10:35:59;31.50;27.00
4376;DHT22;2202;50.866;12.750;2022-07-29T10:38:51;31.40;27.40
4376;DHT22;2202;50.866;12.750;2022-07-29T10:41:45;31.00;26.60
4376;DHT22;2202;50.866;12.750;2022-07-29T10:44:16;30.50;26.60
4376;DHT22;2202;50.866;12.750;2022-07-29T10:46:44;30.10;27.50
4376;DHT22;2202;50.866;12.750;2022-07-29T10:49:12;30.40;27.10
4376;DHT22;2202;50.866;12.750;2022-07-29T10:52:02;30.70;27.90
4376;DHT22;2202;50.866;12.750;2022-07-29T10:54:49;30.80;27.70
4376;DHT22;2202;50.866;12.750;2022-07-29T10:57:26;30.80;26.80
4376;DHT22;2202;50.866;12.750;2022-07-29T11:00:29;31.00;27.30
4376;DHT22;2202;50.866;12.750;2022-07-29T11:02:56;31.00;26.40
4376;DHT22;2202;50.866;12.750;2022-07-29T11:05:24;31.10;26.00
4376;DHT22;2202;50.866;12.750;2022-07-29T11:08:22;31.40;26.10
4376;DHT22;2202;50.866;12.750;2022-07-29T11:10:52;31.70;24.90
4376;DHT22;2202;50.866;12.750;2022-07-29T11:13:47;31.90;25.40
4376;DHT22;2202;50.866;12.750;2022-07-29T11:16:17;32.00;25.40
4376;DHT22;2202;50.866;12.750;2022-07-29T11:19:21;31.80;25.70
4376;DHT22;2202;50.866;12.750;2022-07-29T11:21:49;31.80;25.20
4376;DHT22;2202;50.866;12.750;2022-07-29T11:24:20;31.70;24.70
4376;DHT22;2202;50.866;12.750;2022-07-29T11:27:07;32.00;25.20
4376;DHT22;2202;50.866;12.750;2022-07-29T11:29:36;32.20;25.40
4376;DHT22;2202;50.866;12.750;2022-07-29T11:32:11;32.30;24.50
4376;DHT22;2202;50.866;12.750;2022-07-29T11:34:40;32.30;24.70
4376;DHT22;2202;50.866;12.750;2022-07-29T11:37:18;32.10;25.70
4376;DHT22;2202;50.866;12.750;2022-07-29T11:39:47;32.10;24.50
4376;DHT22;2202;50.866;12.750;2022-07-29T11:42:44;32.30;25.30
4376;DHT22;2202;50.866;12.750;2022-07-29T11:45:22;32.20;25.50
4376;DHT22;2202;50.866;12.750;2022-07-29T11:47:55;32.20;25.30
4376;DHT22;2202;50.866;12.750;2022-07-29T11:50:35;32.00;25.10
4376;DHT22;2202;50.866;12.750;2022-07-29T11:53:09;31.70;25.40
4376;DHT22;2202;50.866;12.750;2022-07-29T11:55:40;31.40;25.90
4376;DHT22;2202;50.866;12.750;2022-07-29T11:58:07;30.80;27.40
4376;DHT22;2202;50.866;12.750;2022-07-29T12:00:36;30.60;26.30
4376;DHT22;2202;50.866;12.750;2022-07-29T12:03:05;30.30;27.50
4376;DHT22;2202;50.866;12.750;2022-07-29T12:05:41;29.90;27.60
4376;DHT22;2202;50.866;12.750;2022-07-29T12:08:11;29.70;26.90
4376;DHT22;2202;50.866;12.750;2022-07-29T12:10:40;29.70;27.20
4376;DHT22;2202;50.866;12.750;2022-07-29T12:13:07;29.70;27.40
4376;DHT22;2202;50.866;12.750;2022-07-29T12:15:35;29.90;28.30
4376;DHT22;2202;50.866;12.750;2022-07-29T12:18:15;30.20;27.10
4376;DHT22;2202;50.866;12.750;2022-07-29T12:20:42;30.40;27.40
4376;DHT22;2202;50.866;12.750;2022-07-29T12:23:10;30.80;27.30
4376;DHT22;2202;50.866;12.750;2022-07-29T12:25:41;31.00;26.20
4376;DHT22;2202;50.866;12.750;2022-07-29T12:28:09;31.00;26.50
4376;DHT22;2202;50.866;12.750;2022-07-29T12:30:38;30.60;26.20
4376;DHT22;2202;50.866;12.750;2022-07-29T12:33:14;30.30;27.10
4376;DHT22;2202;50.866;12.750;2022-07-29T12:35:42;30.10;27.20
4376;DHT22;2202;50.866;12.750;2022-07-29T12:38:11;30.00;27.60
4376;DHT22;2202;50.866;12.750;2022-07-29T12:40:40;30.00;27.50
4376;DHT22;2202;50.866;12.750;2022-07-29T12:43:09;30.30;27.30
4376;DHT22;2202;50.866;12.750;2022-07-29T12:45:37;30.40;27.00
4376;DHT22;2202;50.866;12.750;2022-07-29T12:48:06;30.30;26.90
4376;DHT22;2202;50.866;12.750;2022-07-29T12:50:34;30.10;27.70
4376;DHT22;2202;50.866;12.750;2022-07-29T12:53:12;30.00;27.80
4376;DHT22;2202;50.866;12.750;2022-07-29T12:55:42;29.60;27.10
4376;DHT22;2202;50.866;12.750;2022-07-29T12:58:10;29.30;28.70
4376;DHT22;2202;50.866;12.750;2022-07-29T13:00:37;29.30;28.20
4376;DHT22;2202;50.866;12.750;2022-07-29T13:03:04;29.20;28.60
4376;DHT22;2202;50.866;12.750;2022-07-29T13:05:42;28.90;28.40
4376;DHT22;2202;50.866;12.750;2022-07-29T13:08:13;28.80;28.80
4376;DHT22;2202;50.866;12.750;2022-07-29T13:10:42;28.60;28.70
4376;DHT22;2202;50.866;12.750;2022-07-29T13:13:11;28.30;29.10
4376;DHT22;2202;50.866;12.750;2022-07-29T13:15:39;27.90;29.90
4376;DHT22;2202;50.866;12.750;2022-07-29T13:18:26;27.60;31.20
4376;DHT22;2202;50.866;12.750;2022-07-29T13:20:54;26.90;34.90
4376;DHT22;2202;50.866;12.750;2022-07-29T13:23:21;25.60;43.20
4376;DHT22;2202;50.866;12.750;2022-07-29T13:25:49;25.00;50.50
4376;DHT22;2202;50.866;12.750;2022-07-29T13:28:16;24.30;51.40
4376;DHT22;2202;50.866;12.750;2022-07-29T13:30:43;23.90;55.70
4376;DHT22;2202;50.866;12.750;2022-07-29T13:33:10;24.00;58.50
4376;DHT22;2202;50.866;12.750;2022-07-29T13:35:37;24.20;59.80
4376;DHT22;2202;50.866;12.750;2022-07-29T13:38:04;24.30;61.40
4376;DHT22;2202;50.866;12.750;2022-07-29T13:40:31;24.40;60.20
4376;DHT22;2202;50.866;12.750;2022-07-29T13:43:02;24.40;60.10
4376;DHT22;2202;50.866;12.750;2022-07-29T13:45:28;24.30;56.90
4376;DHT22;2202;50.866;12.750;2022-07-29T13:47:55;24.20;57.40
4376;DHT22;2202;50.866;12.750;2022-07-29T13:50:22;24.00;56.40
4376;DHT22;2202;50.866;12.750;2022-07-29T13:52:49;23.70;58.20
4376;DHT22;2202;50.866;12.750;2022-07-29T13:55:16;23.70;56.60
4376;DHT22;2202;50.866;12.750;2022-07-29T13:57:43;23.60;56.90
4376;DHT22;2202;50.866;12.750;2022-07-29T14:00:13;23.50;58.20
4376;DHT22;2202;50.866;12.750;2022-07-29T14:02:40;23.50;59.00
4376;DHT22;2202;50.866;12.750;2022-07-29T14:05:08;23.50;57.40
4376;DHT22;2202;50.866;12.750;2022-07-29T14:07:36;23.60;58.50
4376;DHT22;2202;50.866;12.750;2022-07-29T14:10:05;23.50;60.60
4376;DHT22;2202;50.866;12.750;2022-07-29T14:12:32;23.40;60.80
4376;DHT22;2202;50.866;12.750;2022-07-29T14:14:59;23.30;60.60
4376;DHT22;2202;50.866;12.750;2022-07-29T14:17:27;23.20;61.40
4376;DHT22;2202;50.866;12.750;2022-07-29T14:19:54;23.10;60.20
4376;DHT22;2202;50.866;12.750;2022-07-29T14:22:21;23.00;62.40
4376;DHT22;2202;50.866;12.750;2022-07-29T14:24:48;22.80;62.00
4376;DHT22;2202;50.866;12.750;2022-07-29T14:27:15;22.80;63.60
4376;DHT22;2202;50.866;12.750;2022-07-29T14:29:42;22.80;62.80
4376;DHT22;2202;50.866;12.750;2022-07-29T14:32:09;22.90;63.60
4376;DHT22;2202;50.866;12.750;2022-07-29T14:34:38;22.70;64.80
4376;DHT22;2202;50.866;12.750;2022-07-29T14:37:06;22.20;64.80
4376;DHT22;2202;50.866;12.750;2022-07-29T14:39:35;21.80;62.60
4376;DHT22;2202;50.866;12.750;2022-07-29T14:42:02;21.40;63.40
4376;DHT22;2202;50.866;12.750;2022-07-29T14:44:29;21.30;65.20
4376;DHT22;2202;50.866;12.750;2022-07-29T14:46:57;21.20;68.20
4376;DHT22;2202;50.866;12.750;2022-07-29T14:49:24;21.10;68.80
4376;DHT22;2202;50.866;12.750;2022-07-29T14:51:53;21.10;69.80
4376;DHT22;2202;50.866;12.750;2022-07-29T14:54:20;21.00;71.20
4376;DHT22;2202;50.866;12.750;2022-07-29T14:56:46;20.90;71.40
4376;DHT22;2202;50.866;12.750;2022-07-29T14:59:14;20.30;76.00
4376;DHT22;2202;50.866;12.750;2022-07-29T15:01:41;19.80;79.40
4376;DHT22;2202;50.866;12.750;2022-07-29T15:04:08;19.40;83.20
4376;DHT22;2202;50.866;12.750;2022-07-29T15:06:35;19.00;86.60
4376;DHT22;2202;50.866;12.750;2022-07-29T15:09:04;18.50;90.30
4376;DHT22;2202;50.866;12.750;2022-07-29T15:11:31;18.10;91.50
4376;DHT22;2202;50.866;12.750;2022-07-29T15:13:58;17.90;92.00
4376;DHT22;2202;50.866;12.750;2022-07-29T15:16:25;17.90;91.90
4376;DHT22;2202;50.866;12.750;2022-07-29T15:18:52;18.00;90.90
4376;DHT22;2202;50.866;12.750;2022-07-29T15:21:19;18.00;90.40
4376;DHT22;2202;50.866;12.750;2022-07-29T15:23:45;18.00;90.70
4376;DHT22;2202;50.866;12.750;2022-07-29T15:26:14;17.90;91.50
4376;DHT22;2202;50.866;12.750;2022-07-29T15:28:41;17.90;91.10
4376;DHT22;2202;50.866;12.750;2022-07-29T15:31:08;18.00;90.50
4376;DHT22;2202;50.866;12.750;2022-07-29T15:33:35;18.10;90.80
4376;DHT22;2202;50.866;12.750;2022-07-29T15:36:02;18.00;91.50
4376;DHT22;2202;50.866;12.750;2022-07-29T15:38:30;18.10;91.80
4376;DHT22;2202;50.866;12.750;2022-07-29T15:40:57;18.20;91.30
4376;DHT22;2202;50.866;12.750;2022-07-29T15:43:25;18.30;91.20
4376;DHT22;2202;50.866;12.750;2022-07-29T15:45:52;18.50;91.30
4376;DHT22;2202;50.866;12.750;2022-07-29T15:48:38;18.60;91.00
4376;DHT22;2202;50.866;12.750;2022-07-29T15:51:05;18.60;90.40
4376;DHT22;2202;50.866;12.750;2022-07-29T15:53:32;18.60;90.20
4376;DHT22;2202;50.866;12.750;2022-07-29T15:55:58;18.60;90.50
4376;DHT22;2202;50.866;12.750;2022-07-29T15:58:27;18.70;90.60
4376;DHT22;2202;50.866;12.750;2022-07-29T16:00:54;18.70;90.20
4376;DHT22;2202;50.866;12.750;2022-07-29T16:03:21;18.80;90.70